createdAt,value
2018-07-12T00:02:52.064Z,1009.89
2018-07-12T00:12:52.105Z,1009.91
2018-07-12T00:22:52.062Z,1009.96
2018-07-12T00:32:52.023Z,1009.92
2018-07-12T00:42:52.106Z,1009.89
2018-07-12T00:52:52.057Z,1009.92
2018-07-12T01:02:52.124Z,1009.92
2018-07-12T01:12:52.093Z,1009.85
2018-07-12T01:22:52.044Z,1009.83
2018-07-12T01:32:52.096Z,1009.7
2018-07-12T01:42:52.098Z,1009.72
2018-07-12T01:52:52.048Z,1009.84
2018-07-12T02:02:52.013Z,1009.86
2018-07-12T02:12:52.078Z,1009.74
2018-07-12T02:22:52.046Z,1009.83
2018-07-12T02:32:52.105Z,1009.8
2018-07-12T02:42:52.048Z,1009.83
2018-07-12T02:52:52.141Z,1009.81
2018-07-12T03:02:52.088Z,1009.79
2018-07-12T03:12:52.054Z,1009.82
2018-07-12T03:22:52.124Z,1009.8
2018-07-12T03:32:52.080Z,1009.74
2018-07-12T03:42:52.033Z,1009.75
2018-07-12T03:52:52.097Z,1009.78
2018-07-12T04:02:52.057Z,1009.8
2018-07-12T04:12:52.138Z,1009.96
2018-07-12T04:22:52.104Z,1009.94
2018-07-12T04:32:52.162Z,1010.12
2018-07-12T04:42:52.097Z,1010.14
2018-07-12T04:52:52.173Z,1010.01
2018-07-12T05:02:52.137Z,1010.01
2018-07-12T05:12:52.210Z,1010.09
2018-07-12T05:22:52.164Z,1010.13
2018-07-12T05:32:52.137Z,1010.24
2018-07-12T05:42:52.183Z,1010.32
2018-07-12T05:52:52.148Z,1010.28
2018-07-12T06:02:52.196Z,1010.42
2018-07-12T06:12:52.172Z,1010.7
2018-07-12T06:22:52.114Z,1010.76
2018-07-12T06:32:52.154Z,1010.71
2018-07-12T06:42:52.169Z,1010.62
2018-07-12T06:52:52.274Z,1010.65
2018-07-12T07:02:52.171Z,1010.72
2018-07-12T07:12:52.128Z,1010.6
2018-07-12T07:22:52.143Z,1010.51
2018-07-12T07:32:52.136Z,1010.57
2018-07-12T07:42:52.229Z,1010.68
2018-07-12T07:52:52.156Z,1010.81
2018-07-12T08:02:52.156Z,1010.63
2018-07-12T08:12:52.173Z,1010.65
2018-07-12T08:22:52.153Z,1010.59
2018-07-12T08:32:52.181Z,1010.69
2018-07-12T08:42:52.273Z,1010.74
2018-07-12T08:52:52.185Z,1010.69
2018-07-12T09:02:52.268Z,1010.59
2018-07-12T09:12:52.193Z,1010.63
2018-07-12T09:22:52.187Z,1010.51
2018-07-12T09:32:52.234Z,1010.69
2018-07-12T09:42:52.235Z,1010.72
2018-07-12T09:52:52.198Z,1010.78
2018-07-12T10:02:52.193Z,1010.87
2018-07-12T10:12:52.221Z,1010.91
2018-07-12T10:22:52.189Z,1010.93
2018-07-12T10:32:52.191Z,1010.92
2018-07-12T10:42:52.208Z,1010.85
2018-07-12T10:52:52.282Z,1010.87
2018-07-12T11:02:52.204Z,1010.97
2018-07-12T11:12:52.217Z,1010.82
2018-07-12T11:22:52.225Z,1010.82
2018-07-12T11:32:52.225Z,1010.77
2018-07-12T11:42:52.224Z,1010.6
2018-07-12T11:52:52.310Z,1010.67
2018-07-12T12:02:52.225Z,1010.61
2018-07-12T12:12:52.288Z,1010.53
2018-07-12T12:22:52.276Z,1010.51
2018-07-12T12:32:52.260Z,1010.41
2018-07-12T12:42:52.231Z,1010.34
2018-07-12T12:52:52.238Z,1010.31
2018-07-12T13:02:52.261Z,1010.25
2018-07-12T13:12:52.566Z,1010.2
2018-07-12T13:22:52.236Z,1010.17
2018-07-12T13:32:52.345Z,1010.15
2018-07-12T13:42:52.251Z,1010.27
2018-07-12T13:52:53.410Z,1010.11
2018-07-12T14:02:52.305Z,1010.03
2018-07-12T14:12:52.391Z,1009.94
2018-07-12T14:22:53.356Z,1009.95
2018-07-12T14:32:54.780Z,1009.77
2018-07-12T14:42:54.296Z,1009.72
2018-07-12T14:52:52.261Z,1009.65
2018-07-12T15:02:52.296Z,1009.72
2018-07-12T15:12:54.382Z,1009.62
2018-07-12T15:22:53.363Z,1009.91
2018-07-12T15:32:53.415Z,1010.24
2018-07-12T15:42:52.274Z,1010.33
2018-07-12T15:52:52.310Z,1010.63
2018-07-12T16:02:52.322Z,1010.59
2018-07-12T16:12:52.299Z,1010.62
2018-07-12T16:22:52.284Z,1010.48
2018-07-12T16:32:54.424Z,1010.41
2018-07-12T16:42:52.642Z,1010.44
2018-07-12T16:52:52.361Z,1010.53
2018-07-12T17:02:53.507Z,1010.44
2018-07-12T17:12:52.301Z,1010.44
2018-07-12T17:22:52.336Z,1010.46
2018-07-12T17:32:52.307Z,1010.45
2018-07-12T17:42:52.307Z,1010.52
2018-07-12T17:52:52.332Z,1010.56
2018-07-12T18:02:52.422Z,1010.58
2018-07-12T18:12:52.335Z,1010.6
2018-07-12T18:22:52.320Z,1010.53
2018-07-12T18:32:52.320Z,1010.52
2018-07-12T18:42:52.352Z,1010.66
2018-07-12T18:52:52.518Z,1010.79
2018-07-12T19:02:52.358Z,1010.89
2018-07-12T19:12:52.310Z,1010.9
2018-07-12T19:22:52.336Z,1011.02
2018-07-12T19:32:52.358Z,1011.13
2018-07-12T19:42:52.379Z,1011.29
2018-07-12T19:52:52.354Z,1011.44
2018-07-12T20:02:52.317Z,1011.53
2018-07-12T20:12:52.452Z,1011.64
2018-07-12T20:22:52.379Z,1011.76
2018-07-12T20:32:52.480Z,1011.7
2018-07-12T20:42:52.356Z,1011.8
2018-07-12T20:52:52.372Z,1011.87
2018-07-12T21:02:52.652Z,1011.89
2018-07-12T21:12:53.385Z,1011.99
2018-07-12T21:22:52.401Z,1011.98
2018-07-12T21:32:52.333Z,1011.91
2018-07-12T21:42:52.350Z,1012.01
2018-07-12T21:52:52.344Z,1012.12
2018-07-12T22:02:52.422Z,1012.18
2018-07-12T22:12:52.325Z,1012.16
2018-07-12T22:22:52.354Z,1012.19
2018-07-12T22:32:52.347Z,1012.25
2018-07-12T22:42:52.341Z,1012.22
2018-07-12T22:52:52.322Z,1012.19
2018-07-12T23:02:52.337Z,1012.18
2018-07-12T23:12:52.319Z,1012.22
2018-07-12T23:22:52.314Z,1012.27
2018-07-12T23:32:52.328Z,1012.26
2018-07-12T23:42:52.324Z,1012.26
2018-07-12T23:52:52.328Z,1012.25
